createdAt,value
2019-05-17T00:01:27.081Z,99875.00
2019-05-17T00:03:56.476Z,99871.00
2019-05-17T00:06:24.496Z,99877.00
2019-05-17T00:08:52.518Z,99880.00
2019-05-17T00:11:20.379Z,99873.00
2019-05-17T00:13:48.503Z,99861.00
2019-05-17T00:16:17.412Z,99871.00
2019-05-17T00:18:46.404Z,99855.00
2019-05-17T00:21:16.758Z,99847.00
2019-05-17T00:23:46.777Z,99857.00
2019-05-17T00:26:16.435Z,99857.00
2019-05-17T00:28:46.772Z,99844.00
2019-05-17T00:31:14.271Z,99844.00
2019-05-17T00:33:43.309Z,99842.00
2019-05-17T00:36:12.085Z,99835.00
2019-05-17T00:38:48.279Z,99830.00
2019-05-17T00:41:10.025Z,99829.00
2019-05-17T00:43:38.025Z,99831.00
2019-05-17T00:46:06.679Z,99829.00
2019-05-17T00:48:37.308Z,99830.00
2019-05-17T00:51:09.306Z,99825.00
2019-05-17T00:53:36.262Z,99818.00
2019-05-17T00:56:06.466Z,99824.00
2019-05-17T00:58:34.099Z,99812.00
2019-05-17T01:01:08.862Z,99819.00
2019-05-17T01:03:39.865Z,99826.00
2019-05-17T01:06:09.363Z,99819.00
2019-05-17T01:08:37.513Z,99819.00
2019-05-17T01:11:07.121Z,99806.00
2019-05-17T01:13:37.465Z,99808.00
2019-05-17T01:16:07.748Z,99805.00
2019-05-17T01:18:36.192Z,99796.00
2019-05-17T01:21:09.381Z,99797.00
2019-05-17T01:23:37.384Z,99800.00
2019-05-17T01:26:07.338Z,99797.00
2019-05-17T01:28:36.309Z,99794.00
2019-05-17T01:31:06.489Z,99790.00
2019-05-17T01:33:36.764Z,99787.00
2019-05-17T01:36:06.588Z,99792.00
2019-05-17T01:38:34.011Z,99790.00
2019-05-17T01:41:04.214Z,99788.00
2019-05-17T01:43:32.145Z,99791.00
2019-05-17T01:46:00.062Z,99779.00
2019-05-17T01:48:30.777Z,99778.00
2019-05-17T01:50:58.710Z,99772.00
2019-05-17T01:53:27.114Z,99772.00
2019-05-17T01:55:56.815Z,99776.00
2019-05-17T01:58:27.075Z,99770.00
2019-05-17T02:00:57.317Z,99764.00
2019-05-17T02:03:26.777Z,99769.00
2019-05-17T02:05:58.041Z,99766.00
2019-05-17T02:08:26.436Z,99757.00
2019-05-17T02:10:57.400Z,99767.00
2019-05-17T02:13:27.807Z,99756.00
2019-05-17T02:15:56.417Z,99758.00
2019-05-17T02:19:06.697Z,99756.00
2019-05-17T02:24:27.792Z,99755.00
2019-05-17T04:36:13.282Z,99727.00
2019-05-17T04:38:43.632Z,99709.00
2019-05-17T04:41:36.014Z,99721.00
2019-05-17T04:43:53.446Z,99724.00
2019-05-17T04:46:23.601Z,99726.00
2019-05-17T04:48:53.584Z,99724.00
2019-05-17T04:51:23.216Z,99721.00
2019-05-17T04:53:52.978Z,99719.00
2019-05-17T04:56:22.688Z,99718.00
2019-05-17T04:58:54.104Z,99723.00
2019-05-17T05:01:23.646Z,99709.00
2019-05-17T05:03:52.481Z,99701.00
2019-05-17T05:06:23.343Z,99712.00
2019-05-17T05:08:52.900Z,99712.00
2019-05-17T05:11:23.099Z,99716.00
2019-05-17T05:13:53.086Z,99704.00
2019-05-17T05:16:22.594Z,99716.00
2019-05-17T05:18:52.082Z,99708.00
2019-05-17T05:22:04.462Z,99718.00
2019-05-17T05:24:32.347Z,99720.00
2019-05-17T05:27:02.556Z,99715.00
2019-05-17T05:29:32.155Z,99723.00
2019-05-17T05:32:11.832Z,99721.00
2019-05-17T05:34:43.859Z,99710.00
2019-05-17T05:37:12.831Z,99718.00
2019-05-17T05:39:41.407Z,99719.00
2019-05-17T05:42:11.572Z,99717.00
2019-05-17T05:44:41.580Z,99716.00
2019-05-17T05:47:32.368Z,99720.00
2019-05-17T05:50:01.749Z,99709.00
2019-05-17T05:52:32.247Z,99714.00
2019-05-17T05:55:01.490Z,99717.00
2019-05-17T05:57:32.055Z,99725.00
2019-05-17T06:00:02.005Z,99714.00
2019-05-17T06:02:29.340Z,99717.00
2019-05-17T06:04:57.261Z,99723.00
2019-05-17T06:07:25.371Z,99719.00
2019-05-17T06:10:13.275Z,99721.00
2019-05-17T06:12:43.373Z,99713.00
2019-05-17T06:16:17.031Z,99726.00
2019-05-17T06:18:44.882Z,99710.00
2019-05-17T06:22:31.840Z,99713.00
2019-05-17T06:25:14.753Z,99719.00
2019-05-17T06:27:48.527Z,99722.00
2019-05-17T06:30:18.233Z,99716.00
2019-05-17T06:32:46.180Z,99712.00
2019-05-17T06:35:33.559Z,99719.00
2019-05-17T06:38:02.026Z,99717.00
2019-05-17T06:40:32.355Z,99720.00
2019-05-17T06:43:05.043Z,99716.00
2019-05-17T06:45:55.627Z,99715.00
2019-05-17T06:48:24.627Z,99719.00
2019-05-17T06:51:02.701Z,99719.00
2019-05-17T06:53:43.988Z,99709.00
2019-05-17T06:56:12.859Z,99715.00
2019-05-17T06:58:40.925Z,99722.00
2019-05-17T07:01:10.072Z,99720.00
2019-05-17T07:03:39.856Z,99723.00
2019-05-17T07:06:16.824Z,99711.00
2019-05-17T07:08:42.668Z,99710.00
2019-05-17T07:11:10.649Z,99704.00
2019-05-17T07:13:39.567Z,99711.00
2019-05-17T07:16:10.159Z,99704.00
2019-05-17T07:18:59.702Z,99712.00
2019-05-17T07:21:29.745Z,99713.00
2019-05-17T07:24:07.045Z,99708.00
2019-05-17T07:27:00.616Z,99711.00
2019-05-17T07:30:13.242Z,99714.00
2019-05-17T07:33:27.312Z,99711.00
2019-05-17T07:35:55.200Z,99704.00
2019-05-17T07:38:23.120Z,99704.00
2019-05-17T07:41:10.958Z,99705.00
2019-05-17T07:43:40.961Z,99699.00
2019-05-17T07:47:15.313Z,99699.00
2019-05-17T07:49:36.341Z,99705.00
2019-05-17T07:52:52.897Z,99703.00
2019-05-17T07:55:30.994Z,99700.00
2019-05-17T08:01:52.731Z,99685.00
2019-05-17T08:04:35.473Z,99686.00
2019-05-17T08:07:42.072Z,99686.00
2019-05-17T08:11:16.929Z,99685.00
2019-05-17T08:14:59.867Z,99678.00
2019-05-17T08:17:25.050Z,99679.00
2019-05-17T08:20:53.880Z,99666.00
2019-05-17T08:24:10.430Z,99670.00
2019-05-17T08:27:36.388Z,99663.00
2019-05-17T08:30:20.634Z,99654.00
2019-05-17T08:41:32.228Z,99658.00
2019-05-17T08:52:02.314Z,99642.00
2019-05-17T08:54:30.488Z,99626.00
2019-05-17T08:57:00.524Z,99624.00
2019-05-17T08:59:29.685Z,99628.00
2019-05-17T09:01:59.972Z,99622.00
2019-05-17T09:05:16.227Z,99622.00
2019-05-17T09:09:52.683Z,99612.00
2019-05-17T09:12:14.018Z,99616.00
2019-05-17T09:24:43.152Z,99609.00
2019-05-17T09:30:50.854Z,99602.00
2019-05-17T09:33:19.304Z,99604.00
2019-05-17T09:35:53.024Z,99604.00
2019-05-17T09:38:29.536Z,99602.00
2019-05-17T09:41:03.030Z,99597.00
2019-05-17T09:43:54.350Z,99592.00
2019-05-17T09:46:55.040Z,99599.00
2019-05-17T09:49:45.048Z,99594.00
2019-05-17T09:56:01.317Z,99585.00
2019-05-17T09:58:30.253Z,99590.00
2019-05-17T10:01:01.065Z,99589.00
2019-05-17T10:03:28.006Z,99588.00
2019-05-17T10:05:56.643Z,99590.00
2019-05-17T10:08:24.643Z,99582.00
2019-05-17T10:11:04.736Z,99581.00
2019-05-17T10:13:31.736Z,99576.00
2019-05-17T10:16:41.272Z,99567.00
2019-05-17T10:19:29.904Z,99574.00
2019-05-17T10:22:11.350Z,99575.00
2019-05-17T10:25:09.687Z,99568.00
2019-05-17T10:28:05.781Z,99566.00
2019-05-17T10:31:43.181Z,99564.00
2019-05-17T10:34:43.192Z,99563.00
2019-05-17T10:38:12.426Z,99572.00
2019-05-17T10:41:45.103Z,99555.00
2019-05-17T10:45:27.465Z,99565.00
2019-05-17T10:47:57.822Z,99551.00
2019-05-17T10:50:25.789Z,99550.00
2019-05-17T10:53:00.434Z,99548.00
2019-05-17T10:56:10.593Z,99554.00
2019-05-17T10:59:00.129Z,99548.00
2019-05-17T11:01:30.499Z,99547.00
2019-05-17T11:03:59.593Z,99544.00
2019-05-17T11:06:30.210Z,99561.00
2019-05-17T11:08:59.526Z,99548.00
2019-05-17T11:11:27.584Z,99541.00
2019-05-17T11:13:55.464Z,99548.00
2019-05-17T11:16:27.643Z,99550.00
2019-05-17T11:18:55.499Z,99548.00
2019-05-17T11:21:29.087Z,99531.00
2019-05-17T11:24:01.558Z,99537.00
2019-05-17T11:26:42.577Z,99529.00
2019-05-17T11:29:45.149Z,99520.00
2019-05-17T11:32:43.975Z,99532.00
2019-05-17T11:35:46.579Z,99519.00
2019-05-17T11:38:52.240Z,99532.00
2019-05-17T11:42:20.692Z,99536.00
2019-05-17T11:44:39.506Z,99540.00
2019-05-17T11:47:07.488Z,99540.00
2019-05-17T12:31:31.165Z,99486.00
2019-05-17T12:33:59.523Z,99480.00
2019-05-17T12:36:27.503Z,99479.00
2019-05-17T12:38:55.695Z,99476.00
2019-05-17T12:41:23.926Z,99484.00
2019-05-17T12:43:51.923Z,99481.00
2019-05-17T12:46:19.982Z,99496.00
2019-05-17T12:48:47.964Z,99490.00
2019-05-17T12:51:15.929Z,99487.00
2019-05-17T12:53:43.933Z,99483.00
2019-05-17T12:56:11.876Z,99492.00
2019-05-17T12:58:40.235Z,99503.00
2019-05-17T13:01:08.991Z,99496.00
2019-05-17T13:03:37.979Z,99492.00
2019-05-17T13:06:05.993Z,99493.00
2019-05-17T13:08:34.067Z,99495.00
2019-05-17T13:11:02.780Z,99474.00
2019-05-17T13:13:30.842Z,99484.00
2019-05-17T13:15:59.243Z,99489.00
2019-05-17T13:18:27.245Z,99483.00
2019-05-17T13:20:55.253Z,99465.00
2019-05-17T13:23:23.449Z,99476.00
2019-05-17T13:25:51.554Z,99487.00
2019-05-17T13:28:19.718Z,99481.00
2019-05-17T13:30:47.997Z,99486.00
2019-05-17T13:33:16.138Z,99486.00
2019-05-17T13:35:44.238Z,99472.00
2019-05-17T13:38:12.682Z,99457.00
2019-05-17T13:40:40.900Z,99474.00
2019-05-17T13:43:08.878Z,99461.00
2019-05-17T13:45:37.787Z,99468.00
2019-05-17T13:48:06.016Z,99468.00
2019-05-17T13:50:34.132Z,99455.00
2019-05-17T13:53:02.261Z,99468.00
2019-05-17T13:55:30.461Z,99461.00
2019-05-17T14:18:55.732Z,99462.00
2019-05-17T14:48:45.798Z,99445.00
2019-05-17T17:58:54.165Z,99356.00
2019-05-17T18:01:24.407Z,99358.00
2019-05-17T18:03:53.227Z,99353.00
2019-05-17T18:06:21.208Z,99356.00
2019-05-17T18:08:49.172Z,99354.00
2019-05-17T18:11:17.625Z,99358.00
2019-05-17T18:13:45.739Z,99356.00
2019-05-17T18:16:14.854Z,99357.00
2019-05-17T18:18:43.169Z,99355.00
2019-05-17T18:21:11.284Z,99349.00
2019-05-17T18:23:39.631Z,99370.00
2019-05-17T18:26:07.793Z,99357.00
2019-05-17T18:28:35.817Z,99361.00
2019-05-17T18:31:04.362Z,99355.00
2019-05-17T18:33:32.759Z,99365.00
2019-05-17T18:36:01.014Z,99372.00
2019-05-17T18:38:30.872Z,99361.00
2019-05-17T18:40:58.926Z,99364.00
2019-05-17T18:43:27.353Z,99368.00
2019-05-17T18:45:55.831Z,99373.00
2019-05-17T18:48:23.722Z,99376.00
2019-05-17T18:50:51.798Z,99373.00
2019-05-17T18:53:19.739Z,99389.00
2019-05-17T18:55:47.824Z,99384.00
2019-05-17T18:58:15.881Z,99386.00
2019-05-17T19:00:44.199Z,99386.00
2019-05-17T19:03:12.277Z,99384.00
2019-05-17T19:05:40.340Z,99388.00
2019-05-17T19:08:08.344Z,99395.00
2019-05-17T19:10:37.295Z,99396.00
2019-05-17T19:13:05.205Z,99392.00
2019-05-17T19:15:33.134Z,99399.00
2019-05-17T19:18:01.059Z,99392.00
2019-05-17T19:20:29.178Z,99369.00
2019-05-17T19:22:58.701Z,99391.00
2019-05-17T19:25:27.062Z,99394.00
2019-05-17T19:27:55.166Z,99392.00
2019-05-17T19:30:23.354Z,99407.00
2019-05-17T19:32:51.369Z,99396.00
2019-05-17T19:35:19.329Z,99403.00
2019-05-17T19:37:47.288Z,99394.00
2019-05-17T19:40:16.703Z,99406.00
2019-05-17T19:42:44.722Z,99400.00
2019-05-17T19:45:14.047Z,99400.00
2019-05-17T19:47:42.015Z,99409.00
2019-05-17T19:50:10.722Z,99406.00
2019-05-17T19:52:38.604Z,99412.00
2019-05-17T19:55:06.954Z,99399.00
2019-05-17T19:57:35.167Z,99413.00
2019-05-17T20:00:03.719Z,99400.00
2019-05-17T20:02:32.762Z,99409.00
2019-05-17T20:05:00.873Z,99414.00
2019-05-17T20:07:37.101Z,99410.00
2019-05-17T20:09:59.047Z,99419.00
2019-05-17T20:12:26.993Z,99421.00
2019-05-17T20:14:54.974Z,99420.00
2019-05-17T20:17:22.893Z,99431.00
2019-05-17T20:19:50.920Z,99433.00
2019-05-17T20:22:19.997Z,99443.00
2019-05-17T20:24:53.677Z,99432.00
2019-05-17T20:27:21.736Z,99421.00
2019-05-17T20:29:49.864Z,99418.00
2019-05-17T20:32:17.880Z,99423.00
2019-05-17T20:34:45.989Z,99420.00
2019-05-17T20:37:13.946Z,99412.00
2019-05-17T20:39:42.270Z,99409.00
2019-05-17T20:42:10.383Z,99414.00
2019-05-17T20:44:38.755Z,99418.00
2019-05-17T20:47:06.797Z,99424.00
2019-05-17T20:49:34.739Z,99426.00
2019-05-17T20:52:02.667Z,99413.00
2019-05-17T20:54:30.726Z,99416.00
2019-05-17T20:56:58.695Z,99426.00
2019-05-17T20:59:26.690Z,99424.00
2019-05-17T21:01:57.306Z,99422.00
2019-05-17T21:04:25.274Z,99414.00
2019-05-17T21:06:53.274Z,99406.00
2019-05-17T21:09:21.144Z,99402.00
2019-05-17T21:11:49.152Z,99407.00
2019-05-17T21:14:17.051Z,99402.00
2019-05-17T21:16:45.020Z,99406.00
2019-05-17T21:19:13.045Z,99412.00
2019-05-17T21:21:41.101Z,99408.00
2019-05-17T21:24:09.065Z,99412.00
2019-05-17T21:26:37.113Z,99411.00
2019-05-17T21:29:05.108Z,99409.00
2019-05-17T21:31:33.136Z,99407.00
2019-05-17T21:34:01.213Z,99416.00
2019-05-17T21:36:29.182Z,99415.00
2019-05-17T21:38:57.250Z,99410.00
2019-05-17T21:41:25.751Z,99419.00
2019-05-17T21:43:53.784Z,99423.00
2019-05-17T21:46:22.852Z,99420.00
2019-05-17T21:48:50.797Z,99434.00
2019-05-17T21:51:18.974Z,99431.00
2019-05-17T21:53:50.161Z,99436.00
2019-05-17T21:56:18.284Z,99436.00
2019-05-17T21:58:46.215Z,99432.00
2019-05-17T22:01:19.199Z,99425.00
2019-05-17T22:03:47.246Z,99425.00
2019-05-17T22:06:15.460Z,99434.00
2019-05-17T22:08:43.487Z,99436.00
2019-05-17T22:11:11.994Z,99426.00
2019-05-17T22:13:40.018Z,99436.00
2019-05-17T22:16:18.968Z,99429.00
2019-05-17T22:18:37.839Z,99434.00
2019-05-17T22:21:05.851Z,99436.00
2019-05-17T22:23:33.815Z,99438.00
2019-05-17T22:26:01.684Z,99427.00
2019-05-17T22:28:29.632Z,99435.00
2019-05-17T22:30:57.574Z,99429.00
2019-05-17T22:33:25.494Z,99443.00
2019-05-17T22:35:53.494Z,99439.00
2019-05-17T22:38:21.859Z,99437.00
2019-05-17T22:40:49.918Z,99432.00
2019-05-17T22:43:18.026Z,99427.00
2019-05-17T22:45:45.985Z,99425.00
2019-05-17T22:48:13.919Z,99424.00
2019-05-17T22:50:43.472Z,99427.00
2019-05-17T22:53:11.635Z,99429.00
2019-05-17T22:55:39.763Z,99424.00
2019-05-17T22:58:08.028Z,99432.00
2019-05-17T23:00:38.328Z,99427.00
2019-05-17T23:03:06.357Z,99423.00
2019-05-17T23:05:34.372Z,99435.00
2019-05-17T23:08:02.447Z,99423.00
2019-05-17T23:10:30.390Z,99426.00
2019-05-17T23:12:58.299Z,99428.00
2019-05-17T23:15:28.194Z,99435.00
2019-05-17T23:17:56.123Z,99432.00
2019-05-17T23:20:23.968Z,99428.00
2019-05-17T23:22:51.874Z,99424.00
2019-05-17T23:25:19.804Z,99432.00
2019-05-17T23:27:47.717Z,99434.00
2019-05-17T23:30:15.629Z,99437.00
2019-05-17T23:32:43.577Z,99436.00
2019-05-17T23:35:11.558Z,99456.00
2019-05-17T23:37:39.448Z,99447.00
2019-05-17T23:40:08.042Z,99448.00
2019-05-17T23:42:35.928Z,99445.00
2019-05-17T23:45:04.962Z,99443.00
2019-05-17T23:47:33.350Z,99441.00
2019-05-17T23:50:01.219Z,99447.00
2019-05-17T23:52:29.110Z,99440.00
2019-05-17T23:54:57.076Z,99447.00
2019-05-17T23:57:24.985Z,99440.00
2019-05-17T23:59:52.825Z,99435.00
